createdAt,value
2022-09-24T00:00:56.624Z,0.00
2022-09-24T00:01:56.676Z,0.00
2022-09-24T00:02:56.667Z,0.00
2022-09-24T00:03:56.617Z,0.00
2022-09-24T00:04:57.586Z,0.00
2022-09-24T00:05:56.633Z,0.00
2022-09-24T00:06:56.584Z,0.00
2022-09-24T00:07:56.575Z,0.00
2022-09-24T00:08:56.577Z,0.00
2022-09-24T00:09:56.555Z,0.00
2022-09-24T00:10:56.569Z,0.00
2022-09-24T00:11:56.581Z,0.00
2022-09-24T00:12:56.565Z,0.00
2022-09-24T00:13:57.238Z,0.00
2022-09-24T00:14:56.571Z,0.00
2022-09-24T00:15:56.562Z,0.00
2022-09-24T00:16:56.521Z,0.00
2022-09-24T00:17:56.567Z,0.00
2022-09-24T00:18:56.543Z,0.00
2022-09-24T00:19:57.502Z,0.00
2022-09-24T00:20:56.471Z,0.00
2022-09-24T00:21:56.468Z,0.00
2022-09-24T00:22:56.472Z,0.00
2022-09-24T00:23:56.450Z,0.00
2022-09-24T00:24:56.469Z,0.00
2022-09-24T00:25:56.464Z,0.00
2022-09-24T00:26:56.437Z,0.00
2022-09-24T00:27:56.456Z,0.00
2022-09-24T00:28:56.432Z,0.00
2022-09-24T00:29:57.003Z,0.00
2022-09-24T00:30:56.476Z,0.00
2022-09-24T00:31:56.448Z,0.00
2022-09-24T00:32:56.388Z,0.00
2022-09-24T00:33:56.381Z,0.00
2022-09-24T00:34:56.369Z,0.00
2022-09-24T00:35:56.406Z,0.00
2022-09-24T00:36:56.364Z,0.00
2022-09-24T00:37:56.350Z,0.00
2022-09-24T00:38:56.352Z,0.00
2022-09-24T00:39:56.339Z,0.00
2022-09-24T00:40:56.331Z,0.00
2022-09-24T00:41:56.333Z,0.00
2022-09-24T00:42:56.323Z,0.00
2022-09-24T00:43:56.305Z,0.00
2022-09-24T00:44:56.325Z,0.00
2022-09-24T00:45:56.306Z,0.00
2022-09-24T00:46:56.475Z,0.00
2022-09-24T00:47:56.377Z,0.00
2022-09-24T00:48:56.278Z,0.00
2022-09-24T00:49:56.263Z,0.00
2022-09-24T00:50:56.259Z,0.00
2022-09-24T00:51:56.716Z,0.00
2022-09-24T00:52:56.264Z,0.00
2022-09-24T00:53:56.243Z,0.00
2022-09-24T00:54:56.850Z,0.00
2022-09-24T00:55:56.234Z,0.00
2022-09-24T00:56:56.212Z,0.00
2022-09-24T00:57:56.714Z,0.00
2022-09-24T00:58:56.198Z,0.00
2022-09-24T00:59:56.205Z,0.00
2022-09-24T01:00:56.226Z,0.00
2022-09-24T01:01:56.286Z,0.00
2022-09-24T01:02:56.181Z,0.00
2022-09-24T01:03:56.181Z,0.00
2022-09-24T01:04:56.763Z,0.00
2022-09-24T01:05:56.159Z,0.00
2022-09-24T01:06:56.166Z,0.00
2022-09-24T01:07:56.178Z,0.00
2022-09-24T01:08:56.180Z,0.00
2022-09-24T01:09:56.157Z,0.00
2022-09-24T01:10:56.176Z,0.00
2022-09-24T01:11:56.114Z,0.00
2022-09-24T01:12:56.824Z,0.00
2022-09-24T01:13:56.116Z,0.00
2022-09-24T01:14:56.082Z,0.00
2022-09-24T01:15:56.140Z,0.00
2022-09-24T01:16:56.078Z,0.00
2022-09-24T01:17:56.071Z,0.00
2022-09-24T01:18:56.067Z,0.00
2022-09-24T01:19:56.068Z,0.00
2022-09-24T01:20:56.099Z,0.00
2022-09-24T01:21:56.068Z,0.00
2022-09-24T01:22:56.075Z,0.00
2022-09-24T01:23:56.071Z,0.00
2022-09-24T01:24:56.019Z,0.00
2022-09-24T01:25:56.051Z,0.00
2022-09-24T01:26:56.020Z,0.00
2022-09-24T01:27:56.005Z,0.00
2022-09-24T01:28:56.005Z,0.00
2022-09-24T01:29:56.010Z,0.00
2022-09-24T01:30:56.003Z,0.00
2022-09-24T01:31:55.984Z,0.00
2022-09-24T01:32:56.014Z,0.00
2022-09-24T01:33:55.965Z,0.00
2022-09-24T01:34:56.487Z,0.00
2022-09-24T01:35:55.979Z,0.00
2022-09-24T01:36:55.939Z,0.00
2022-09-24T01:37:55.950Z,0.00
2022-09-24T01:38:55.922Z,0.00
2022-09-24T01:39:55.934Z,0.00
2022-09-24T01:40:55.999Z,0.00
2022-09-24T01:41:56.343Z,0.00
2022-09-24T01:42:55.899Z,0.00
2022-09-24T01:43:55.887Z,0.00
2022-09-24T01:44:55.873Z,0.00
2022-09-24T01:45:55.878Z,0.00
2022-09-24T01:46:55.981Z,0.00
2022-09-24T01:47:55.883Z,0.00
2022-09-24T01:48:55.858Z,0.00
2022-09-24T01:49:55.842Z,0.00
2022-09-24T01:50:55.837Z,0.00
2022-09-24T01:51:55.893Z,0.00
2022-09-24T01:52:55.866Z,0.00
2022-09-24T01:53:55.815Z,0.00
2022-09-24T01:54:55.807Z,0.00
2022-09-24T01:55:55.825Z,0.00
2022-09-24T01:56:55.811Z,0.00
2022-09-24T01:57:55.796Z,0.00
2022-09-24T01:58:56.194Z,0.00
2022-09-24T01:59:55.825Z,0.00
2022-09-24T02:00:55.817Z,0.00
2022-09-24T02:01:55.831Z,0.00
2022-09-24T02:02:55.752Z,0.00
2022-09-24T02:03:55.741Z,0.00
2022-09-24T02:04:55.733Z,0.00
2022-09-24T02:05:55.781Z,0.00
2022-09-24T02:06:55.772Z,0.00
2022-09-24T02:07:55.719Z,0.00
2022-09-24T02:08:55.716Z,0.00
2022-09-24T02:09:55.745Z,0.00
2022-09-24T02:10:55.697Z,0.00
2022-09-24T02:11:55.726Z,0.00
2022-09-24T02:12:55.678Z,0.00
2022-09-24T02:13:55.672Z,0.00
2022-09-24T02:14:55.706Z,0.00
2022-09-24T02:15:55.715Z,0.00
2022-09-24T02:16:55.847Z,0.00
2022-09-24T02:17:55.647Z,0.00
2022-09-24T02:18:56.076Z,0.00
2022-09-24T02:19:55.628Z,0.00
2022-09-24T02:20:55.633Z,0.00
2022-09-24T02:21:55.611Z,0.00
2022-09-24T02:23:02.646Z,0.00
2022-09-24T02:23:55.607Z,0.00
2022-09-24T02:24:55.608Z,0.00
2022-09-24T02:25:55.589Z,0.00
2022-09-24T02:26:55.590Z,0.00
2022-09-24T02:27:55.607Z,0.00
2022-09-24T02:28:55.582Z,0.00
2022-09-24T02:29:55.565Z,0.00
2022-09-24T02:30:55.570Z,0.00
2022-09-24T02:31:55.625Z,0.00
2022-09-24T02:32:55.550Z,0.00
2022-09-24T02:33:55.965Z,0.00
2022-09-24T02:34:55.529Z,0.00
2022-09-24T02:35:55.528Z,0.00
2022-09-24T02:36:55.517Z,0.00
2022-09-24T02:37:55.518Z,0.00
2022-09-24T02:38:56.818Z,0.00
2022-09-24T02:39:55.504Z,0.00
2022-09-24T02:40:55.620Z,0.00
2022-09-24T02:41:56.175Z,0.00
2022-09-24T02:42:55.472Z,0.00
2022-09-24T02:43:55.491Z,0.00
2022-09-24T02:44:55.488Z,0.00
2022-09-24T02:45:55.457Z,0.00
2022-09-24T02:46:55.528Z,0.00
2022-09-24T02:47:56.189Z,0.00
2022-09-24T02:48:55.546Z,0.00
2022-09-24T02:49:55.421Z,0.00
2022-09-24T02:50:55.423Z,0.00
2022-09-24T02:51:55.411Z,0.00
2022-09-24T02:52:56.139Z,0.00
2022-09-24T02:53:55.824Z,0.00
2022-09-24T02:54:55.391Z,0.00
2022-09-24T02:55:55.389Z,0.00
2022-09-24T02:56:55.381Z,0.00
2022-09-24T02:57:55.372Z,0.00
2022-09-24T02:58:55.374Z,0.00
2022-09-24T02:59:55.403Z,0.00
2022-09-24T03:00:55.351Z,0.00
2022-09-24T03:01:55.490Z,0.00
2022-09-24T03:02:55.447Z,0.00
2022-09-24T03:03:55.381Z,0.00
2022-09-24T03:04:55.756Z,0.00
2022-09-24T03:05:55.321Z,0.00
2022-09-24T03:06:55.309Z,0.00
2022-09-24T03:07:55.309Z,0.00
2022-09-24T03:08:55.313Z,0.00
2022-09-24T03:09:55.449Z,0.00
2022-09-24T03:10:55.324Z,0.00
2022-09-24T03:11:55.272Z,0.00
2022-09-24T03:12:55.275Z,0.00
2022-09-24T03:13:55.282Z,0.00
2022-09-24T03:14:55.259Z,0.00
2022-09-24T03:15:55.449Z,0.00
2022-09-24T03:16:55.248Z,0.00
2022-09-24T03:17:55.247Z,0.00
2022-09-24T03:18:55.241Z,0.00
2022-09-24T03:19:55.513Z,0.00
2022-09-24T03:20:55.227Z,0.00
2022-09-24T03:21:55.220Z,0.00
2022-09-24T03:22:55.213Z,0.00
2022-09-24T03:23:55.245Z,0.00
2022-09-24T03:24:55.205Z,0.00
2022-09-24T03:25:55.187Z,0.00
2022-09-24T03:26:55.180Z,0.00
2022-09-24T03:27:55.180Z,0.00
2022-09-24T03:28:55.168Z,0.00
2022-09-24T03:29:55.174Z,0.00
2022-09-24T03:30:55.211Z,0.00
2022-09-24T03:31:55.278Z,0.00
2022-09-24T03:32:55.142Z,0.00
2022-09-24T03:33:55.144Z,0.00
2022-09-24T03:34:55.137Z,0.00
2022-09-24T03:35:55.118Z,0.00
2022-09-24T03:36:55.109Z,0.00
2022-09-24T03:37:55.108Z,0.00
2022-09-24T03:38:55.424Z,0.00
2022-09-24T03:39:55.095Z,0.00
2022-09-24T03:40:55.252Z,0.00
2022-09-24T03:41:55.082Z,0.00
2022-09-24T03:42:55.084Z,0.00
2022-09-24T03:43:55.068Z,0.00
2022-09-24T03:44:55.853Z,0.00
2022-09-24T03:45:55.056Z,0.00
2022-09-24T03:46:55.223Z,0.00
2022-09-24T03:47:55.062Z,0.00
2022-09-24T03:48:55.028Z,0.00
2022-09-24T03:49:55.046Z,0.00
2022-09-24T03:50:55.033Z,0.00
2022-09-24T03:51:55.006Z,0.00
2022-09-24T03:52:55.009Z,0.00
2022-09-24T03:53:54.998Z,0.00
2022-09-24T03:54:55.695Z,0.00
2022-09-24T03:55:54.984Z,0.00
2022-09-24T03:56:54.972Z,0.00
2022-09-24T03:57:54.964Z,0.00
2022-09-24T03:58:54.960Z,0.00
2022-09-24T03:59:54.948Z,0.00
2022-09-24T04:00:55.245Z,0.00
2022-09-24T04:01:55.028Z,0.00
2022-09-24T04:02:55.038Z,0.00
2022-09-24T04:03:54.965Z,0.00
2022-09-24T04:04:54.918Z,0.00
2022-09-24T04:05:55.121Z,0.00
2022-09-24T04:06:54.900Z,0.00
2022-09-24T04:07:54.903Z,0.00
2022-09-24T04:08:56.036Z,0.00
2022-09-24T04:09:54.876Z,0.00
2022-09-24T04:10:54.879Z,0.00
2022-09-24T04:11:54.863Z,0.00
2022-09-24T04:12:56.137Z,0.00
2022-09-24T04:13:54.923Z,0.00
2022-09-24T04:14:54.954Z,0.00
2022-09-24T04:15:54.938Z,0.00
2022-09-24T04:16:54.830Z,0.00
2022-09-24T04:17:54.826Z,0.00
2022-09-24T04:18:56.136Z,0.00
2022-09-24T04:19:54.844Z,0.00
2022-09-24T04:20:54.807Z,0.00
2022-09-24T04:21:54.797Z,0.00
2022-09-24T04:22:54.797Z,0.00
2022-09-24T04:23:54.780Z,0.00
2022-09-24T04:24:54.798Z,0.00
2022-09-24T04:25:54.786Z,0.00
2022-09-24T04:26:54.763Z,0.00
2022-09-24T04:27:54.764Z,0.00
2022-09-24T04:28:54.774Z,0.00
2022-09-24T04:29:54.741Z,0.00
2022-09-24T04:30:54.796Z,0.00
2022-09-24T04:31:54.803Z,0.00
2022-09-24T04:32:54.745Z,0.00
2022-09-24T04:33:54.726Z,0.00
2022-09-24T04:34:55.145Z,0.00
2022-09-24T04:35:54.741Z,0.00
2022-09-24T04:36:54.702Z,0.00
2022-09-24T04:37:54.700Z,0.00
2022-09-24T04:38:54.682Z,0.00
2022-09-24T04:39:55.111Z,0.00
2022-09-24T04:40:54.769Z,0.00
2022-09-24T04:41:55.112Z,0.00
2022-09-24T04:42:55.319Z,0.00
2022-09-24T04:43:54.647Z,0.00
2022-09-24T04:44:56.269Z,0.00
2022-09-24T04:45:54.646Z,0.00
2022-09-24T04:46:54.682Z,0.00
2022-09-24T04:47:54.641Z,0.00
2022-09-24T04:48:55.029Z,0.00
2022-09-24T04:49:54.607Z,0.00
2022-09-24T04:50:54.851Z,0.00
2022-09-24T04:51:54.624Z,0.00
2022-09-24T04:52:54.588Z,0.00
2022-09-24T04:53:54.601Z,0.00
2022-09-24T04:54:54.603Z,0.00
2022-09-24T04:55:54.839Z,0.00
2022-09-24T04:56:54.570Z,0.00
2022-09-24T04:57:54.561Z,0.00
2022-09-24T04:58:54.548Z,0.00
2022-09-24T04:59:54.578Z,0.00
2022-09-24T05:00:54.535Z,0.00
2022-09-24T05:01:54.756Z,0.00
2022-09-24T05:02:54.674Z,0.00
2022-09-24T05:03:54.518Z,5.62
2022-09-24T05:04:54.519Z,5.62
2022-09-24T05:05:54.511Z,5.62
2022-09-24T05:06:54.943Z,5.62
2022-09-24T05:07:54.934Z,5.62
2022-09-24T05:08:54.486Z,5.62
2022-09-24T05:09:54.485Z,11.25
2022-09-24T05:10:54.473Z,11.25
2022-09-24T05:11:54.471Z,11.25
2022-09-24T05:12:54.467Z,11.25
2022-09-24T05:13:54.449Z,11.25
2022-09-24T05:14:54.446Z,16.88
2022-09-24T05:15:54.501Z,16.88
2022-09-24T05:16:54.431Z,16.88
2022-09-24T05:17:54.429Z,16.88
2022-09-24T05:18:54.867Z,22.50
2022-09-24T05:19:54.413Z,22.50
2022-09-24T05:20:54.397Z,22.50
2022-09-24T05:21:54.404Z,28.12
2022-09-24T05:22:54.387Z,28.12
2022-09-24T05:23:54.405Z,28.12
2022-09-24T05:24:55.314Z,33.75
2022-09-24T05:25:54.364Z,33.75
2022-09-24T05:26:54.367Z,33.75
2022-09-24T05:27:54.353Z,39.38
2022-09-24T05:28:54.344Z,39.38
2022-09-24T05:29:54.350Z,45.00
2022-09-24T05:30:54.811Z,45.00
2022-09-24T05:31:54.329Z,45.00
2022-09-24T05:32:54.336Z,50.62
2022-09-24T05:33:54.326Z,50.62
2022-09-24T05:34:54.311Z,56.25
2022-09-24T05:35:54.736Z,56.25
2022-09-24T05:36:54.293Z,61.88
2022-09-24T05:37:54.288Z,61.88
2022-09-24T05:38:54.283Z,67.50
2022-09-24T05:39:54.299Z,73.12
2022-09-24T05:40:54.353Z,78.75
2022-09-24T05:41:54.300Z,84.38
2022-09-24T05:42:54.252Z,90.00
2022-09-24T05:43:54.275Z,95.62
2022-09-24T05:44:54.249Z,106.88
2022-09-24T05:45:54.228Z,112.50
2022-09-24T05:46:54.330Z,135.00
2022-09-24T05:47:54.215Z,146.25
2022-09-24T05:48:54.212Z,157.50
2022-09-24T05:49:54.207Z,157.50
2022-09-24T05:50:54.231Z,168.75
2022-09-24T05:51:54.213Z,174.38
2022-09-24T05:52:54.190Z,185.62
2022-09-24T05:53:54.177Z,196.88
2022-09-24T05:54:54.171Z,208.12
2022-09-24T05:57:19.921Z,230.62
2022-09-24T05:58:19.590Z,241.88
2022-09-24T05:59:19.585Z,258.75
2022-09-24T06:00:19.580Z,270.00
2022-09-24T06:01:19.567Z,286.88
2022-09-24T06:02:19.698Z,303.75
2022-09-24T06:03:19.751Z,326.25
2022-09-24T06:04:19.612Z,337.50
2022-09-24T06:05:19.743Z,360.00
2022-09-24T06:06:19.539Z,371.25
2022-09-24T06:07:19.534Z,399.38
2022-09-24T06:08:19.534Z,472.50
2022-09-24T06:09:19.525Z,568.12
2022-09-24T06:10:19.644Z,630.00
2022-09-24T06:11:19.517Z,630.00
2022-09-24T06:12:19.502Z,641.25
2022-09-24T06:13:19.518Z,663.75
2022-09-24T06:14:20.163Z,691.88
2022-09-24T06:15:19.536Z,714.38
2022-09-24T06:16:19.515Z,720.00
2022-09-24T06:17:19.465Z,720.00
2022-09-24T06:18:19.452Z,708.75
2022-09-24T06:19:19.448Z,697.50
2022-09-24T06:20:19.540Z,708.75
2022-09-24T06:21:19.924Z,691.88
2022-09-24T06:22:19.543Z,658.12
2022-09-24T06:23:19.418Z,675.00
2022-09-24T06:24:22.377Z,663.75
2022-09-24T06:25:22.791Z,680.62
2022-09-24T06:26:20.281Z,697.50
2022-09-24T06:27:20.376Z,731.25
2022-09-24T06:28:19.372Z,742.50
2022-09-24T06:29:19.400Z,748.12
2022-09-24T06:30:19.376Z,765.00
2022-09-24T06:31:20.181Z,781.88
2022-09-24T06:32:19.353Z,798.75
2022-09-24T06:33:19.344Z,810.00
2022-09-24T06:34:19.334Z,821.25
2022-09-24T06:35:19.380Z,770.62
2022-09-24T06:36:19.342Z,832.50
2022-09-24T06:37:19.326Z,900.00
2022-09-24T06:38:19.319Z,911.25
2022-09-24T06:39:19.371Z,883.12
2022-09-24T06:40:19.375Z,838.12
2022-09-24T06:41:19.392Z,815.62
2022-09-24T06:42:19.294Z,787.50
2022-09-24T06:43:19.320Z,798.75
2022-09-24T06:44:19.342Z,815.62
2022-09-24T06:45:19.938Z,843.75
2022-09-24T06:46:19.421Z,832.50
2022-09-24T06:47:19.261Z,849.38
2022-09-24T06:48:19.253Z,911.25
2022-09-24T06:49:19.270Z,933.75
2022-09-24T06:50:19.299Z,945.00
2022-09-24T06:51:19.247Z,888.75
2022-09-24T06:52:19.228Z,793.12
2022-09-24T06:53:19.202Z,759.38
2022-09-24T06:54:19.188Z,759.38
2022-09-24T06:55:19.195Z,765.00
2022-09-24T06:56:19.177Z,776.25
2022-09-24T06:57:19.183Z,815.62
2022-09-24T06:58:19.187Z,945.00
2022-09-24T06:59:19.174Z,1091.25
2022-09-24T07:00:19.158Z,1175.62
2022-09-24T07:01:19.983Z,1186.88
2022-09-24T07:02:19.224Z,1226.25
2022-09-24T07:03:19.144Z,1260.00
2022-09-24T07:04:19.149Z,1237.50
2022-09-24T07:05:19.137Z,1226.25
2022-09-24T07:06:19.114Z,1231.88
2022-09-24T07:07:19.161Z,1209.38
2022-09-24T07:08:19.110Z,1203.75
2022-09-24T07:09:19.114Z,1220.62
2022-09-24T07:10:19.083Z,1226.25
2022-09-24T07:11:19.080Z,1265.62
2022-09-24T07:12:19.073Z,1299.38
2022-09-24T07:13:19.515Z,1350.00
2022-09-24T07:14:19.118Z,1395.00
2022-09-24T07:15:19.052Z,1366.88
2022-09-24T07:16:19.134Z,1372.50
2022-09-24T07:17:19.072Z,1366.88
2022-09-24T07:18:19.035Z,1400.62
2022-09-24T07:19:19.040Z,1456.88
2022-09-24T07:20:19.015Z,1501.88
2022-09-24T07:21:19.005Z,1586.25
2022-09-24T07:22:19.048Z,1608.75
2022-09-24T07:23:18.998Z,1597.50
2022-09-24T07:24:18.995Z,1625.62
2022-09-24T07:25:19.010Z,1524.38
2022-09-24T07:26:18.974Z,1164.38
2022-09-24T07:27:18.967Z,945.00
2022-09-24T07:28:18.969Z,933.75
2022-09-24T07:29:18.993Z,922.50
2022-09-24T07:30:18.951Z,1074.38
2022-09-24T07:31:18.986Z,1687.50
2022-09-24T07:32:18.979Z,2092.50
2022-09-24T07:33:18.939Z,1991.25
2022-09-24T07:34:18.925Z,1833.75
2022-09-24T07:35:18.952Z,1710.00
2022-09-24T07:36:18.903Z,1586.25
2022-09-24T07:37:18.944Z,1501.88
2022-09-24T07:38:18.885Z,1445.62
2022-09-24T07:39:18.874Z,1389.38
2022-09-24T07:40:18.926Z,1333.12
2022-09-24T07:41:18.960Z,1158.75
2022-09-24T07:42:18.851Z,1012.50
2022-09-24T07:43:18.894Z,978.75
2022-09-24T07:44:18.848Z,967.50
2022-09-24T07:45:18.836Z,967.50
2022-09-24T07:46:18.917Z,967.50
2022-09-24T07:47:19.942Z,967.50
2022-09-24T07:48:18.808Z,967.50
2022-09-24T07:49:18.890Z,967.50
2022-09-24T07:50:18.802Z,967.50
2022-09-24T07:51:18.791Z,967.50
2022-09-24T07:52:18.805Z,967.50
2022-09-24T07:53:18.778Z,967.50
2022-09-24T07:54:18.918Z,973.12
2022-09-24T07:55:18.771Z,973.12
2022-09-24T07:56:18.806Z,978.75
2022-09-24T07:57:18.778Z,978.75
2022-09-24T07:58:18.738Z,978.75
2022-09-24T07:59:18.789Z,984.38
2022-09-24T08:00:18.748Z,984.38
2022-09-24T08:01:18.803Z,990.00
2022-09-24T08:02:18.761Z,995.62
2022-09-24T08:03:18.816Z,1001.25
2022-09-24T08:04:18.775Z,1023.75
2022-09-24T08:05:18.720Z,1063.12
2022-09-24T08:06:18.694Z,1186.88
2022-09-24T08:07:18.681Z,1305.00
2022-09-24T08:08:18.682Z,1344.38
2022-09-24T08:09:18.690Z,1366.88
2022-09-24T08:10:18.667Z,1366.88
2022-09-24T08:11:18.645Z,1366.88
2022-09-24T08:12:18.651Z,1338.75
2022-09-24T08:13:23.912Z,1243.12
2022-09-24T08:14:19.627Z,1153.12
2022-09-24T08:15:18.626Z,1164.38
2022-09-24T08:16:18.679Z,1276.88
2022-09-24T08:17:18.606Z,1423.12
2022-09-24T08:18:18.598Z,1530.00
2022-09-24T08:19:18.614Z,1591.88
2022-09-24T08:20:18.583Z,905.62
2022-09-24T08:21:18.610Z,1108.12
2022-09-24T08:22:18.858Z,990.00
2022-09-24T08:23:18.564Z,883.12
2022-09-24T08:24:19.104Z,849.38
2022-09-24T08:25:19.024Z,798.75
2022-09-24T08:26:18.595Z,832.50
2022-09-24T08:27:18.541Z,849.38
2022-09-24T08:28:18.529Z,900.00
2022-09-24T08:29:18.526Z,933.75
2022-09-24T08:30:18.567Z,945.00
2022-09-24T08:31:18.575Z,961.88
2022-09-24T08:32:18.527Z,1068.75
2022-09-24T08:33:18.503Z,1153.12
2022-09-24T08:34:18.502Z,1243.12
2022-09-24T08:35:18.485Z,1237.50
2022-09-24T08:36:18.505Z,1288.12
2022-09-24T08:37:18.495Z,1423.12
2022-09-24T08:38:18.465Z,1170.00
2022-09-24T08:39:18.490Z,1068.75
2022-09-24T08:40:18.480Z,1012.50
2022-09-24T08:41:25.483Z,1023.75
2022-09-24T08:42:18.439Z,1063.12
2022-09-24T08:43:18.423Z,1057.50
2022-09-24T08:44:18.870Z,1012.50
2022-09-24T08:45:19.097Z,1051.88
2022-09-24T08:46:18.474Z,1012.50
2022-09-24T08:47:18.393Z,973.12
2022-09-24T08:48:18.408Z,928.12
2022-09-24T08:49:18.389Z,916.88
2022-09-24T08:50:18.390Z,939.38
2022-09-24T08:51:18.391Z,973.12
2022-09-24T08:52:18.397Z,1046.25
2022-09-24T08:53:18.382Z,1119.38
2022-09-24T08:54:18.359Z,1220.62
2022-09-24T08:55:18.341Z,1265.62
2022-09-24T08:56:18.381Z,1271.25
2022-09-24T08:57:18.346Z,1434.38
2022-09-24T08:58:18.781Z,1321.88
2022-09-24T08:59:18.324Z,2013.75
2022-09-24T09:00:18.852Z,2143.12
2022-09-24T09:01:18.474Z,1389.38
2022-09-24T09:02:18.629Z,1175.62
2022-09-24T09:03:18.424Z,1856.25
2022-09-24T09:04:18.315Z,1603.12
2022-09-24T09:05:18.289Z,1063.12
2022-09-24T09:06:18.298Z,1046.25
2022-09-24T09:07:18.284Z,973.12
2022-09-24T09:08:46.736Z,950.62
2022-09-24T09:09:19.571Z,939.38
2022-09-24T09:10:18.245Z,922.50
2022-09-24T09:11:18.229Z,905.62
2022-09-24T09:12:18.222Z,905.62
2022-09-24T09:13:18.244Z,888.75
2022-09-24T09:14:18.214Z,877.50
2022-09-24T09:15:18.655Z,855.00
2022-09-24T09:16:18.252Z,821.25
2022-09-24T09:17:18.670Z,787.50
2022-09-24T09:18:18.199Z,753.75
2022-09-24T09:19:18.202Z,736.88
2022-09-24T09:20:18.215Z,708.75
2022-09-24T09:21:18.165Z,697.50
2022-09-24T09:22:18.185Z,680.62
2022-09-24T09:23:18.190Z,669.38
2022-09-24T09:24:18.138Z,658.12
2022-09-24T09:25:18.163Z,646.88
2022-09-24T09:26:19.178Z,635.62
2022-09-24T09:27:18.121Z,630.00
2022-09-24T09:28:18.119Z,624.38
2022-09-24T09:29:18.135Z,613.12
2022-09-24T09:30:18.104Z,607.50
2022-09-24T09:31:18.158Z,601.88
2022-09-24T09:32:18.107Z,596.25
2022-09-24T09:33:18.083Z,596.25
2022-09-24T09:34:18.077Z,601.88
2022-09-24T09:35:18.063Z,618.75
2022-09-24T09:36:18.055Z,624.38
2022-09-24T09:37:22.000Z,635.62
2022-09-24T09:38:19.536Z,646.88
2022-09-24T09:39:18.039Z,675.00
2022-09-24T09:40:18.222Z,658.12
2022-09-24T09:41:18.128Z,658.12
2022-09-24T09:42:18.023Z,663.75
2022-09-24T09:43:18.022Z,663.75
2022-09-24T09:44:18.001Z,669.38
2022-09-24T09:45:17.999Z,675.00
2022-09-24T09:46:18.045Z,680.62
2022-09-24T09:47:18.108Z,680.62
2022-09-24T09:48:17.981Z,680.62
2022-09-24T09:49:17.966Z,680.62
2022-09-24T09:50:17.964Z,675.00
2022-09-24T09:51:21.984Z,675.00
2022-09-24T09:52:17.957Z,669.38
2022-09-24T09:53:17.980Z,663.75
2022-09-24T09:54:17.941Z,663.75
2022-09-24T09:55:17.924Z,663.75
2022-09-24T09:56:17.919Z,663.75
2022-09-24T09:57:17.940Z,675.00
2022-09-24T09:58:17.911Z,680.62
2022-09-24T09:59:18.030Z,686.25
2022-09-24T10:00:17.910Z,691.88
2022-09-24T10:01:17.892Z,691.88
2022-09-24T10:02:17.939Z,697.50
2022-09-24T10:03:17.934Z,708.75
2022-09-24T10:04:17.970Z,708.75
2022-09-24T10:05:20.155Z,725.62
2022-09-24T10:06:17.844Z,736.88
2022-09-24T10:07:17.947Z,753.75
2022-09-24T10:08:17.836Z,753.75
2022-09-24T10:09:17.825Z,759.38
2022-09-24T10:10:18.270Z,759.38
2022-09-24T10:11:17.808Z,770.62
2022-09-24T10:12:17.835Z,787.50
2022-09-24T10:13:17.909Z,826.88
2022-09-24T10:14:17.793Z,871.88
2022-09-24T10:15:17.795Z,905.62
2022-09-24T10:16:17.883Z,945.00
2022-09-24T10:17:17.768Z,1080.00
2022-09-24T10:18:17.768Z,1125.00
2022-09-24T10:19:17.759Z,1108.12
2022-09-24T10:20:17.751Z,1108.12
2022-09-24T10:21:18.339Z,1080.00
2022-09-24T10:22:17.738Z,1051.88
2022-09-24T10:23:17.727Z,1063.12
2022-09-24T10:24:17.724Z,1040.62
2022-09-24T10:25:17.719Z,978.75
2022-09-24T10:26:17.713Z,973.12
2022-09-24T10:27:18.825Z,961.88
2022-09-24T10:28:18.138Z,961.88
2022-09-24T10:29:17.708Z,956.25
2022-09-24T10:30:17.688Z,967.50
2022-09-24T10:31:17.720Z,945.00
2022-09-24T10:32:17.674Z,961.88
2022-09-24T10:33:17.663Z,1001.25
2022-09-24T10:34:18.092Z,1085.62
2022-09-24T10:35:17.650Z,1080.00
2022-09-24T10:36:17.645Z,1113.75
2022-09-24T10:37:17.630Z,1192.50
2022-09-24T10:38:17.639Z,1175.62
2022-09-24T10:39:17.622Z,1181.25
2022-09-24T10:40:17.731Z,1170.00
2022-09-24T10:41:17.602Z,1170.00
2022-09-24T10:42:17.605Z,1153.12
2022-09-24T10:43:17.589Z,1147.50
2022-09-24T10:44:17.585Z,1158.75
2022-09-24T10:45:17.620Z,1136.25
2022-09-24T10:46:17.692Z,1125.00
2022-09-24T10:47:17.567Z,1102.50
2022-09-24T10:48:17.564Z,1080.00
2022-09-24T10:49:18.424Z,1074.38
2022-09-24T10:50:17.553Z,1063.12
2022-09-24T10:51:17.533Z,1063.12
2022-09-24T10:52:17.530Z,1051.88
2022-09-24T10:53:17.528Z,1046.25
2022-09-24T10:54:17.522Z,1040.62
2022-09-24T10:55:18.444Z,1029.38
2022-09-24T10:56:17.507Z,1035.00
2022-09-24T10:57:18.069Z,1057.50
2022-09-24T10:58:17.497Z,1102.50
2022-09-24T10:59:17.486Z,1080.00
2022-09-24T11:00:17.497Z,1023.75
2022-09-24T11:01:18.017Z,995.62
2022-09-24T11:02:17.611Z,961.88
2022-09-24T11:03:17.483Z,928.12
2022-09-24T11:04:17.449Z,894.38
2022-09-24T11:05:17.470Z,860.62
2022-09-24T11:06:17.436Z,832.50
2022-09-24T11:07:17.459Z,804.38
2022-09-24T11:08:17.432Z,787.50
2022-09-24T11:09:17.426Z,781.88
2022-09-24T11:10:17.433Z,781.88
2022-09-24T11:11:17.407Z,787.50
2022-09-24T11:12:17.401Z,793.12
2022-09-24T11:13:19.396Z,815.62
2022-09-24T11:14:17.470Z,838.12
2022-09-24T11:15:17.404Z,855.00
2022-09-24T11:16:17.400Z,838.12
2022-09-24T11:17:17.384Z,826.88
2022-09-24T11:18:17.372Z,798.75
2022-09-24T11:19:17.352Z,776.25
2022-09-24T11:20:17.397Z,759.38
2022-09-24T11:21:17.376Z,742.50
2022-09-24T11:22:17.334Z,731.25
2022-09-24T11:23:17.331Z,725.62
2022-09-24T11:24:17.323Z,714.38
2022-09-24T11:25:17.309Z,708.75
2022-09-24T11:26:17.585Z,686.25
2022-09-24T11:27:18.217Z,669.38
2022-09-24T11:28:17.297Z,652.50
2022-09-24T11:29:17.284Z,635.62
2022-09-24T11:30:17.291Z,618.75
2022-09-24T11:31:17.394Z,607.50
2022-09-24T11:32:17.305Z,596.25
2022-09-24T11:33:22.114Z,590.62
2022-09-24T11:34:18.252Z,585.00
2022-09-24T11:35:17.260Z,590.62
2022-09-24T11:36:17.262Z,585.00
2022-09-24T11:37:17.233Z,585.00
2022-09-24T11:38:17.695Z,585.00
2022-09-24T11:39:17.222Z,585.00
2022-09-24T11:40:17.340Z,585.00
2022-09-24T11:41:17.645Z,585.00
2022-09-24T11:42:17.199Z,590.62
2022-09-24T11:43:17.193Z,596.25
2022-09-24T11:44:18.117Z,601.88
2022-09-24T11:45:17.178Z,613.12
2022-09-24T11:46:17.251Z,613.12
2022-09-24T11:47:17.173Z,618.75
2022-09-24T11:48:17.165Z,635.62
2022-09-24T11:49:17.195Z,641.25
2022-09-24T11:50:17.143Z,646.88
2022-09-24T11:51:17.160Z,658.12
2022-09-24T11:52:17.583Z,663.75
2022-09-24T11:53:17.121Z,680.62
2022-09-24T11:54:17.122Z,691.88
2022-09-24T11:55:17.117Z,708.75
2022-09-24T11:56:17.096Z,725.62
2022-09-24T11:57:17.278Z,742.50
2022-09-24T11:58:17.105Z,770.62
2022-09-24T11:59:17.100Z,798.75
2022-09-24T12:00:17.077Z,832.50
2022-09-24T12:01:17.108Z,860.62
2022-09-24T12:02:17.151Z,883.12
2022-09-24T12:03:19.050Z,905.62
2022-09-24T12:04:17.047Z,916.88
2022-09-24T12:05:17.054Z,905.62
2022-09-24T12:06:17.043Z,933.75
2022-09-24T12:07:17.024Z,928.12
2022-09-24T12:08:17.056Z,950.62
2022-09-24T12:09:17.018Z,984.38
2022-09-24T12:10:17.042Z,1023.75
2022-09-24T12:11:16.989Z,1046.25
2022-09-24T12:12:16.994Z,1102.50
2022-09-24T12:13:16.979Z,1113.75
2022-09-24T12:14:17.003Z,1153.12
2022-09-24T12:15:16.969Z,1181.25
2022-09-24T12:16:17.064Z,1181.25
2022-09-24T12:17:16.956Z,1198.12
2022-09-24T12:18:17.046Z,1226.25
2022-09-24T12:19:16.938Z,1271.25
2022-09-24T12:20:17.394Z,1333.12
2022-09-24T12:21:16.948Z,1406.25
2022-09-24T12:22:16.930Z,1440.00
2022-09-24T12:23:16.943Z,1462.50
2022-09-24T12:24:16.963Z,1530.00
2022-09-24T12:25:16.909Z,1530.00
2022-09-24T12:26:16.900Z,1530.00
2022-09-24T12:27:16.883Z,1524.38
2022-09-24T12:28:16.892Z,1451.25
2022-09-24T12:29:16.889Z,1558.12
2022-09-24T12:30:16.864Z,1608.75
2022-09-24T12:31:16.933Z,1552.50
2022-09-24T12:32:16.863Z,1434.38
2022-09-24T12:33:16.843Z,1350.00
2022-09-24T12:34:16.904Z,1344.38
2022-09-24T12:35:16.834Z,1350.00
2022-09-24T12:36:16.820Z,1350.00
2022-09-24T12:37:16.840Z,1338.75
2022-09-24T12:38:16.801Z,1327.50
2022-09-24T12:39:16.795Z,1293.75
2022-09-24T12:40:16.989Z,1276.88
2022-09-24T12:41:16.860Z,1260.00
2022-09-24T12:42:16.805Z,1293.75
2022-09-24T12:43:16.772Z,1305.00
2022-09-24T12:44:21.759Z,1316.25
2022-09-24T12:45:17.749Z,1265.62